Aeroporto :
LOGIN :

Iscrizione | Disclaimer

   EN    FR    IT 

 










Sommario :    VFR   VFR Marginale   IFR   IFR Intensivo   IFR Molto Intensivo
Visibilità : 
Base nubi : 
>= 8 km
>= 3000ft
5 / 8 km
1000 / 3000 ft
1500m / 5 km
500 / 1000 ft
800 / 1500m
200 / 500 ft
< 800m
< 200 ft
Simboli :   Temporali  Nebbia  Neve Forte  Precipitazioni Forti  Vento > 20 kt
SIGMETs :   Varie  Temporali  Ghiacco  Turbolenza  Onda orograficha  Ceneri Vulcaniche






- Altitudine del aeroporto : 39 ft
- Codice IATA : TRS


LIPQ - Friuli Venezia Giulia Apt. Trieste

ULTIMO METAR :
  • 210020Z AUTO 09004KT 9999 BKN035/// OVC053/// 10/10 Q1012

METARs OBSOLETI :
  • 202350Z AUTO 09003KT 9999 OVC039/// 10/10 Q1012
  • 202320Z AUTO 14002KT 9999 OVC037/// 10/10 Q1012
  • 202250Z 10003KT 9999 SCT040 BKN070 10/10 Q1012
  • 202220Z 10005KT 9999 SCT040 BKN070 10/10 Q1012
  • 202150Z 11004KT 9999 SCT030 BKN070 10/10 Q1012

TAF TAF LIPQ
Valido dal 21 a 00 ore il 22 a 00 ore UTC


202300Z 2100/2124 VRB05KT 9000 BKN040
TEMPO 2018/2021 RA
TEMPO 2109/2116 4000 RA



MetMap, La meteo Aeronautica in un colpo d'occhio ! - Copyright ORBIFLY Dicembre 2007 - Disclaimer

ORBIFLY MET'MAP TEAM :

Programmazione e sviluppo : Alexandra Zaïnal
Concezione e sviluppo : Baudouin d'Aumeries
Co-Programmazione e sviluppo : Marc-Olivier Méhu
Supporto tecnico e logistico : Manuel Goepfert
Aiuto per la traduzione : Arnaldo La Scala

Contatto : metmap@orbifly.com




FONTI E CREDITI :

   NOAA